createdAt,value
2023-03-29T00:00:14.096Z,533.38
2023-03-29T00:02:43.070Z,526.58
2023-03-29T00:05:13.298Z,532.33
2023-03-29T00:07:43.098Z,514.88
2023-03-29T00:10:13.481Z,515.75
2023-03-29T00:12:42.591Z,559.05
2023-03-29T00:15:11.512Z,529.03
2023-03-29T00:17:39.907Z,523.70
2023-03-29T00:20:10.243Z,509.98
2023-03-29T00:22:39.766Z,529.88
2023-03-29T00:25:09.813Z,519.38
2023-03-29T00:27:38.417Z,511.40
2023-03-29T00:30:08.434Z,510.08
2023-03-29T00:32:36.829Z,532.88
2023-03-29T00:35:06.562Z,527.45
2023-03-29T00:37:35.534Z,525.13
2023-03-29T00:40:04.989Z,558.90
2023-03-29T00:42:34.701Z,528.17
2023-03-29T00:45:07.022Z,513.17
2023-03-29T00:47:39.377Z,537.83
2023-03-29T00:50:12.465Z,521.20
2023-03-29T00:52:41.607Z,546.90
2023-03-29T00:55:12.776Z,562.53
2023-03-29T00:57:46.693Z,542.88
2023-03-29T01:00:18.316Z,552.83
2023-03-29T01:02:51.018Z,535.00
2023-03-29T01:05:24.250Z,540.78
2023-03-29T01:07:57.944Z,532.40
2023-03-29T01:10:32.028Z,524.73
2023-03-29T01:13:04.782Z,561.20
2023-03-29T01:15:33.387Z,526.67
2023-03-29T01:18:01.998Z,545.85
2023-03-29T01:20:43.388Z,536.65
2023-03-29T01:23:31.570Z,561.28
2023-03-29T01:26:05.596Z,554.70
2023-03-29T01:28:37.274Z,550.88
2023-03-29T01:31:08.661Z,539.08
2023-03-29T01:33:41.221Z,563.60
2023-03-29T01:36:16.467Z,569.28
2023-03-29T01:38:48.503Z,555.30
2023-03-29T01:41:17.214Z,554.75
2023-03-29T01:43:51.316Z,549.20
2023-03-29T01:46:25.870Z,553.95
2023-03-29T01:51:26.956Z,539.85
2023-03-29T01:54:00.179Z,564.63
2023-03-29T01:56:30.063Z,560.38
2023-03-29T01:59:03.885Z,565.15
2023-03-29T02:01:38.218Z,586.88
2023-03-29T02:04:10.504Z,599.67
2023-03-29T02:06:39.894Z,583.40
2023-03-29T02:09:08.459Z,584.15
2023-03-29T02:11:37.804Z,573.25
2023-03-29T02:14:07.574Z,584.45
2023-03-29T02:16:37.214Z,605.60
2023-03-29T02:19:05.811Z,611.40
2023-03-29T02:21:37.710Z,594.22
2023-03-29T02:24:09.121Z,603.35
2023-03-29T02:26:37.881Z,609.30
2023-03-29T02:29:07.858Z,611.13
2023-03-29T02:31:39.219Z,620.65
2023-03-29T02:34:12.343Z,619.58
2023-03-29T02:36:42.758Z,650.92
2023-03-29T02:39:13.962Z,614.78
2023-03-29T02:41:44.608Z,641.38
2023-03-29T02:44:17.831Z,645.83
2023-03-29T02:46:48.793Z,641.45
2023-03-29T02:49:17.476Z,634.75
2023-03-29T02:51:47.428Z,645.60
2023-03-29T02:54:18.428Z,638.15
2023-03-29T02:56:49.197Z,592.17
2023-03-29T02:59:22.513Z,621.13
2023-03-29T03:01:52.524Z,618.03
2023-03-29T03:04:21.598Z,627.70
2023-03-29T03:06:50.349Z,617.63
2023-03-29T03:09:21.838Z,622.88
2023-03-29T03:11:50.156Z,624.42
2023-03-29T03:14:22.789Z,619.08
2023-03-29T03:16:52.770Z,646.78
2023-03-29T03:19:21.213Z,616.88
2023-03-29T03:21:49.652Z,600.53
2023-03-29T03:24:18.694Z,613.38
2023-03-29T03:26:47.279Z,538.92
2023-03-29T03:29:16.536Z,537.30
2023-03-29T03:31:46.678Z,573.13
2023-03-29T03:34:15.083Z,554.58
2023-03-29T03:36:43.508Z,500.48
2023-03-29T03:39:11.889Z,458.20
2023-03-29T03:41:40.314Z,389.88
2023-03-29T03:44:08.704Z,392.65
2023-03-29T03:46:37.083Z,326.52
2023-03-29T03:49:06.822Z,299.88
2023-03-29T03:51:35.239Z,306.15
2023-03-29T03:54:03.628Z,290.40
2023-03-29T03:56:32.154Z,294.55
2023-03-29T03:59:01.039Z,253.07
2023-03-29T04:01:29.418Z,353.85
2023-03-29T04:03:58.299Z,310.27
2023-03-29T04:06:30.497Z,254.98
2023-03-29T04:08:59.818Z,253.60
2023-03-29T04:11:28.353Z,289.50
2023-03-29T04:13:57.667Z,268.13
2023-03-29T04:16:26.389Z,347.63
2023-03-29T04:18:55.177Z,282.73
2023-03-29T04:21:26.634Z,276.48
2023-03-29T04:23:56.500Z,276.33
2023-03-29T04:26:24.846Z,333.58
2023-03-29T04:28:53.376Z,279.88
2023-03-29T04:31:21.858Z,347.77
2023-03-29T04:33:51.597Z,248.18
2023-03-29T04:36:20.596Z,286.25
2023-03-29T04:38:52.937Z,281.02
2023-03-29T04:41:23.729Z,332.08
2023-03-29T04:43:53.635Z,247.82
2023-03-29T04:46:22.041Z,260.10
2023-03-29T04:48:50.668Z,260.42
2023-03-29T04:51:22.721Z,239.85
2023-03-29T04:53:51.804Z,225.23
2023-03-29T04:56:20.207Z,239.95
2023-03-29T04:58:50.952Z,342.40
2023-03-29T05:01:19.388Z,478.08
2023-03-29T05:03:47.761Z,253.15
2023-03-29T05:06:16.949Z,248.45
2023-03-29T05:08:46.068Z,237.18
2023-03-29T05:11:15.363Z,300.70
2023-03-29T05:13:43.826Z,351.00
2023-03-29T05:16:16.988Z,386.20
2023-03-29T05:18:45.450Z,262.10
2023-03-29T05:21:26.301Z,232.13
2023-03-29T05:23:56.906Z,249.70
2023-03-29T05:26:25.516Z,272.13
2023-03-29T05:28:55.500Z,234.40
2023-03-29T05:31:27.649Z,262.80
2023-03-29T05:33:56.378Z,371.67
2023-03-29T05:36:24.909Z,427.70
2023-03-29T05:38:53.533Z,238.10
2023-03-29T05:41:22.792Z,243.30
2023-03-29T05:43:51.484Z,258.83
2023-03-29T05:46:20.426Z,347.70
2023-03-29T05:48:50.684Z,287.50
2023-03-29T05:51:22.474Z,263.75
2023-03-29T05:53:51.287Z,336.88
2023-03-29T05:56:19.950Z,257.48
2023-03-29T05:58:49.294Z,414.13
2023-03-29T06:01:18.771Z,430.10
2023-03-29T06:03:47.388Z,266.45
2023-03-29T06:06:17.584Z,276.10
2023-03-29T06:08:46.472Z,599.17
2023-03-29T06:11:15.580Z,471.48
2023-03-29T06:13:43.964Z,462.73
2023-03-29T06:16:13.457Z,297.27
2023-03-29T06:18:42.361Z,386.00
2023-03-29T06:21:11.158Z,317.88
2023-03-29T06:23:41.782Z,346.80
2023-03-29T06:26:10.648Z,421.77
2023-03-29T06:28:39.014Z,340.35
2023-03-29T06:31:10.200Z,334.08
2023-03-29T06:33:38.778Z,390.08
2023-03-29T06:36:08.316Z,420.00
2023-03-29T06:38:37.137Z,338.13
2023-03-29T06:41:08.618Z,322.85
2023-03-29T06:43:37.085Z,392.67
2023-03-29T06:46:08.718Z,351.00
2023-03-29T06:48:37.115Z,336.30
2023-03-29T06:51:05.800Z,302.00
2023-03-29T06:53:37.208Z,455.60
2023-03-29T06:56:09.129Z,306.65
2023-03-29T06:58:37.961Z,349.67
2023-03-29T07:01:07.120Z,525.25
2023-03-29T07:03:36.337Z,346.05
2023-03-29T07:06:10.027Z,445.20
2023-03-29T07:08:43.315Z,321.52
2023-03-29T07:11:14.641Z,318.88
2023-03-29T07:13:59.352Z,355.23
2023-03-29T07:16:27.782Z,290.33
2023-03-29T07:18:56.617Z,303.35
2023-03-29T07:21:25.212Z,366.38
2023-03-29T07:23:54.000Z,446.25
2023-03-29T07:26:29.025Z,376.17
2023-03-29T07:28:58.810Z,317.15
2023-03-29T07:31:29.316Z,387.08
2023-03-29T07:33:57.799Z,414.02
2023-03-29T07:36:28.569Z,337.45
2023-03-29T07:38:58.109Z,435.63
2023-03-29T07:41:28.002Z,270.50
2023-03-29T07:43:57.018Z,326.80
2023-03-29T07:46:26.179Z,347.85
2023-03-29T07:48:56.724Z,360.58
2023-03-29T07:51:25.162Z,370.23
2023-03-29T07:53:53.545Z,362.35
2023-03-29T07:56:22.289Z,280.42
2023-03-29T07:58:52.115Z,438.70
2023-03-29T08:01:21.886Z,815.03
2023-03-29T08:03:50.432Z,358.98
2023-03-29T08:06:19.375Z,262.15
2023-03-29T08:08:47.849Z,311.10
2023-03-29T08:11:16.458Z,377.38
2023-03-29T08:13:44.900Z,330.35
2023-03-29T08:16:14.700Z,321.70
2023-03-29T08:18:43.121Z,326.05
2023-03-29T08:21:11.751Z,583.50
2023-03-29T08:23:42.077Z,595.40
2023-03-29T08:26:10.453Z,329.38
2023-03-29T08:28:39.480Z,311.15
2023-03-29T08:31:09.835Z,324.40
2023-03-29T08:33:39.790Z,230.73
2023-03-29T08:36:10.213Z,301.98
2023-03-29T08:38:38.637Z,442.73
2023-03-29T08:41:25.961Z,348.15
2023-03-29T08:44:00.908Z,359.02
2023-03-29T08:46:36.425Z,378.13
2023-03-29T08:49:07.464Z,348.58
2023-03-29T08:51:39.534Z,277.98
2023-03-29T08:54:12.445Z,210.32
2023-03-29T08:56:43.367Z,337.90
2023-03-29T08:59:19.159Z,232.32
2023-03-29T09:01:50.350Z,415.60
2023-03-29T09:04:22.762Z,331.60
2023-03-29T09:06:52.303Z,353.50
2023-03-29T09:09:22.588Z,359.42
2023-03-29T09:12:01.818Z,387.63
2023-03-29T09:14:46.431Z,292.20
2023-03-29T09:17:23.412Z,273.08
2023-03-29T09:19:58.018Z,258.27
2023-03-29T09:22:32.764Z,394.73
2023-03-29T09:25:06.958Z,260.23
2023-03-29T09:27:38.767Z,240.10
2023-03-29T09:30:16.881Z,245.55
2023-03-29T09:32:50.547Z,248.55
2023-03-29T09:35:23.980Z,233.50
2023-03-29T09:37:53.828Z,196.27
2023-03-29T09:40:25.710Z,199.43
2023-03-29T09:42:56.048Z,219.73
2023-03-29T09:45:25.212Z,333.50
2023-03-29T09:47:56.933Z,250.35
2023-03-29T09:50:32.037Z,212.15
2023-03-29T09:53:01.112Z,253.65
2023-03-29T09:55:32.404Z,238.63
2023-03-29T09:58:04.032Z,236.95
2023-03-29T10:00:32.577Z,219.07
2023-03-29T10:03:01.058Z,219.02
2023-03-29T10:05:32.564Z,241.45
2023-03-29T10:08:02.199Z,241.88
2023-03-29T10:10:32.484Z,311.67
2023-03-29T10:13:04.377Z,250.10
2023-03-29T10:15:33.176Z,229.52
2023-03-29T10:18:15.759Z,275.00
2023-03-29T10:20:53.482Z,442.45
2023-03-29T10:23:33.281Z,600.65
2023-03-29T10:26:10.792Z,268.08
2023-03-29T10:29:05.047Z,254.20
2023-03-29T10:31:55.594Z,240.18
2023-03-29T10:34:41.194Z,229.52
2023-03-29T10:37:21.607Z,265.83
2023-03-29T10:39:52.017Z,425.25
2023-03-29T10:42:21.276Z,247.02
2023-03-29T10:44:55.442Z,323.58
2023-03-29T10:47:26.863Z,288.02
2023-03-29T10:49:58.700Z,299.52
2023-03-29T10:52:30.201Z,304.65
2023-03-29T10:55:00.030Z,268.13
2023-03-29T10:57:34.678Z,266.77
2023-03-29T11:00:08.052Z,266.92
2023-03-29T11:02:53.529Z,350.27
2023-03-29T11:05:28.354Z,264.17
2023-03-29T11:08:14.892Z,264.30
2023-03-29T11:10:51.603Z,304.23
2023-03-29T11:13:27.492Z,271.60
2023-03-29T11:16:13.793Z,323.38
2023-03-29T11:19:13.647Z,286.98
2023-03-29T11:21:47.671Z,269.65
2023-03-29T11:24:36.603Z,257.30
2023-03-29T11:27:14.814Z,275.70
2023-03-29T11:29:51.927Z,285.77
2023-03-29T11:32:28.327Z,385.17
2023-03-29T11:35:06.448Z,340.60
2023-03-29T11:37:39.365Z,273.50
2023-03-29T11:40:24.770Z,280.48
2023-03-29T11:42:56.888Z,336.23
2023-03-29T11:45:29.496Z,279.88
2023-03-29T11:48:00.883Z,256.60
2023-03-29T11:50:36.509Z,284.95
2023-03-29T11:53:07.059Z,279.55
2023-03-29T11:55:39.100Z,276.88
2023-03-29T11:58:11.416Z,316.35
2023-03-29T12:00:45.888Z,277.55
2023-03-29T12:03:19.727Z,318.13
2023-03-29T12:05:51.705Z,338.05
2023-03-29T12:08:26.608Z,282.45
2023-03-29T12:11:02.966Z,292.75
2023-03-29T12:13:35.284Z,266.95
2023-03-29T12:16:12.893Z,264.85
2023-03-29T12:18:46.135Z,266.25
2023-03-29T12:21:17.242Z,264.67
2023-03-29T12:23:47.412Z,302.38
2023-03-29T12:26:42.399Z,279.90
2023-03-29T12:31:50.237Z,388.42
2023-03-29T12:34:29.687Z,372.35
2023-03-29T12:37:31.117Z,356.77
2023-03-29T12:40:13.086Z,303.38
2023-03-29T12:42:52.662Z,310.52
2023-03-29T12:45:22.218Z,385.10
2023-03-29T12:47:53.321Z,266.17
2023-03-29T12:50:28.402Z,345.80
2023-03-29T12:53:04.940Z,266.20
2023-03-29T12:55:41.698Z,286.25
2023-03-29T12:58:26.505Z,309.35
2023-03-29T13:01:06.259Z,277.83
2023-03-29T13:03:47.586Z,312.23
2023-03-29T13:06:30.180Z,280.35
2023-03-29T13:09:04.902Z,287.63
2023-03-29T13:11:40.755Z,277.70
2023-03-29T13:14:19.381Z,305.70
2023-03-29T13:16:47.988Z,332.05
2023-03-29T13:19:25.112Z,512.15
2023-03-29T13:22:01.392Z,332.27
2023-03-29T13:24:56.551Z,387.35
2023-03-29T13:27:34.165Z,422.30
2023-03-29T13:30:28.040Z,402.02
2023-03-29T13:33:05.747Z,441.17
2023-03-29T13:35:49.896Z,622.35
2023-03-29T13:38:21.601Z,381.02
2023-03-29T13:41:21.843Z,420.65
2023-03-29T13:43:54.609Z,359.95
2023-03-29T13:46:40.998Z,489.60
2023-03-29T13:49:24.848Z,506.90
2023-03-29T13:52:22.191Z,436.20
2023-03-29T13:54:54.955Z,482.20
2023-03-29T14:00:00.483Z,404.77
2023-03-29T14:02:53.475Z,351.02
2023-03-29T14:05:31.923Z,523.97
2023-03-29T14:08:06.935Z,546.13
2023-03-29T14:10:39.978Z,574.17
2023-03-29T14:13:09.272Z,599.03
2023-03-29T14:15:44.773Z,503.13
2023-03-29T14:18:17.746Z,519.70
2023-03-29T14:20:49.134Z,541.92
2023-03-29T14:23:20.736Z,441.95
2023-03-29T14:25:49.557Z,436.60
2023-03-29T14:28:23.078Z,492.67
2023-03-29T14:30:52.706Z,658.50
2023-03-29T14:33:31.172Z,467.33
2023-03-29T14:36:06.166Z,500.98
2023-03-29T14:38:38.058Z,372.45
2023-03-29T14:41:16.796Z,671.35
2023-03-29T14:44:28.283Z,414.98
2023-03-29T14:47:25.028Z,449.17
2023-03-29T14:50:16.295Z,430.20
2023-03-29T14:53:01.654Z,453.05
2023-03-29T14:56:37.399Z,359.80
2023-03-29T14:59:50.436Z,305.52
2023-03-29T15:03:18.129Z,710.42
2023-03-29T15:06:11.374Z,334.00
2023-03-29T15:09:05.104Z,318.85
2023-03-29T15:14:29.435Z,302.67
2023-03-29T15:17:03.127Z,317.73
2023-03-29T15:19:31.976Z,337.00
2023-03-29T15:22:10.929Z,352.60
2023-03-29T15:24:45.169Z,313.17
2023-03-29T15:27:17.440Z,296.10
2023-03-29T15:29:48.431Z,319.42
2023-03-29T15:32:24.387Z,309.42
2023-03-29T15:35:00.475Z,311.90
2023-03-29T15:37:30.677Z,363.38
2023-03-29T15:39:59.302Z,322.95
2023-03-29T15:42:28.179Z,437.45
2023-03-29T15:44:57.630Z,295.13
2023-03-29T15:47:27.786Z,316.02
2023-03-29T15:50:02.119Z,389.77
2023-03-29T15:55:00.647Z,467.08
2023-03-29T15:57:32.049Z,361.98
2023-03-29T16:00:01.093Z,564.63
2023-03-29T16:02:29.843Z,358.67
2023-03-29T16:05:20.321Z,347.30
2023-03-29T16:07:57.248Z,503.23
2023-03-29T16:11:06.380Z,378.33
2023-03-29T16:13:35.197Z,358.05
2023-03-29T16:16:27.160Z,394.08
2023-03-29T16:18:56.090Z,334.15
2023-03-29T16:21:33.845Z,314.83
2023-03-29T16:24:07.273Z,581.05
2023-03-29T16:26:36.054Z,395.80
2023-03-29T16:29:04.753Z,310.60
2023-03-29T16:31:34.399Z,348.98
2023-03-29T16:34:03.380Z,370.73
2023-03-29T16:43:23.082Z,414.83
2023-03-29T16:45:55.168Z,307.08
2023-03-29T16:48:28.636Z,382.90
2023-03-29T16:51:19.943Z,486.13
2023-03-29T16:56:36.769Z,354.00
2023-03-29T16:59:09.721Z,384.05
2023-03-29T17:01:38.670Z,514.63
2023-03-29T17:04:07.193Z,352.70
2023-03-29T17:06:35.998Z,364.20
2023-03-29T17:09:05.186Z,391.98
2023-03-29T17:11:37.826Z,413.75
2023-03-29T17:14:06.956Z,440.08
2023-03-29T17:16:35.575Z,468.60
2023-03-29T17:19:04.265Z,498.98
2023-03-29T17:21:36.682Z,466.48
2023-03-29T17:24:29.248Z,493.65
2023-03-29T17:26:59.423Z,405.13
2023-03-29T17:29:37.286Z,549.28
2023-03-29T17:32:09.661Z,615.75
2023-03-29T17:34:41.693Z,564.58
2023-03-29T17:37:13.126Z,579.70
2023-03-29T17:39:42.345Z,589.92
2023-03-29T17:42:12.837Z,545.53
2023-03-29T17:44:41.795Z,583.72
2023-03-29T17:47:10.762Z,655.63
2023-03-29T17:49:39.647Z,672.10
2023-03-29T17:52:08.552Z,680.75
2023-03-29T17:54:40.396Z,761.08
2023-03-29T17:57:10.183Z,619.28
2023-03-29T17:59:43.217Z,643.22
2023-03-29T18:02:18.160Z,616.63
2023-03-29T18:04:50.511Z,607.17
2023-03-29T18:07:22.239Z,608.50
2023-03-29T18:09:52.688Z,617.97
2023-03-29T18:12:21.753Z,612.40
2023-03-29T18:14:52.387Z,611.97
2023-03-29T18:17:21.996Z,610.55
2023-03-29T18:19:52.332Z,638.83
2023-03-29T18:22:34.364Z,614.05
2023-03-29T18:25:07.180Z,721.83
2023-03-29T18:27:39.763Z,626.22
2023-03-29T18:30:16.712Z,628.50
2023-03-29T18:32:45.778Z,609.05
2023-03-29T18:35:15.815Z,615.17
2023-03-29T18:37:44.513Z,681.17
2023-03-29T18:40:20.496Z,589.72
2023-03-29T18:42:49.197Z,602.75
2023-03-29T18:45:21.475Z,588.78
2023-03-29T18:47:51.328Z,586.58
2023-03-29T18:50:20.081Z,594.15
2023-03-29T18:52:49.024Z,659.97
2023-03-29T18:55:19.791Z,659.25
2023-03-29T18:57:51.295Z,604.30
2023-03-29T19:01:02.990Z,571.83
2023-03-29T19:07:14.804Z,607.50
2023-03-29T19:09:43.460Z,541.95
2023-03-29T19:12:12.108Z,543.15
2023-03-29T19:14:42.244Z,523.90
2023-03-29T19:17:11.129Z,549.30
2023-03-29T19:19:57.160Z,541.83
2023-03-29T19:22:34.063Z,544.10
2023-03-29T19:25:03.222Z,536.20
2023-03-29T19:27:35.401Z,500.65
2023-03-29T19:30:11.224Z,530.80
2023-03-29T19:32:43.460Z,546.28
2023-03-29T19:35:14.682Z,531.72
2023-03-29T19:37:46.391Z,583.80
2023-03-29T19:40:18.039Z,525.90
2023-03-29T19:42:47.802Z,581.88
2023-03-29T19:45:16.956Z,524.67
2023-03-29T19:47:48.249Z,556.78
2023-03-29T19:50:18.733Z,561.83
2023-03-29T19:52:54.588Z,651.88
2023-03-29T19:55:33.719Z,563.00
2023-03-29T19:58:08.638Z,528.88
2023-03-29T20:00:42.992Z,572.08
2023-03-29T20:03:15.778Z,515.35
2023-03-29T20:05:46.498Z,549.72
2023-03-29T20:08:19.346Z,601.28
2023-03-29T20:29:01.669Z,502.63
2023-03-29T20:31:31.570Z,457.42
2023-03-29T20:34:33.525Z,562.10
2023-03-29T20:37:11.349Z,523.70
2023-03-29T20:39:49.756Z,501.23
2023-03-29T20:42:18.529Z,458.40
2023-03-29T20:44:51.694Z,492.45
2023-03-29T20:47:20.499Z,587.78
2023-03-29T20:49:54.485Z,487.92
2023-03-29T20:52:27.390Z,525.85
2023-03-29T20:54:56.002Z,498.52
2023-03-29T20:57:29.229Z,522.60
2023-03-29T21:00:00.704Z,521.00
2023-03-29T21:02:30.339Z,513.95
2023-03-29T21:05:03.164Z,490.63
2023-03-29T21:07:32.498Z,499.48
2023-03-29T21:10:08.526Z,506.85
2023-03-29T21:12:37.433Z,516.35
2023-03-29T21:15:08.754Z,506.92
2023-03-29T21:17:45.495Z,514.10
2023-03-29T21:20:21.290Z,519.15
2023-03-29T21:22:50.032Z,485.38
2023-03-29T21:25:21.443Z,575.63
2023-03-29T21:27:50.776Z,551.47
2023-03-29T21:30:21.064Z,573.08
2023-03-29T21:32:49.738Z,681.63
2023-03-29T21:35:18.438Z,504.13
2023-03-29T21:37:46.825Z,466.90
2023-03-29T21:40:15.474Z,509.90
2023-03-29T21:42:43.966Z,569.38
2023-03-29T21:45:12.938Z,548.35
2023-03-29T21:47:42.873Z,508.77
2023-03-29T21:50:12.616Z,525.95
2023-03-29T21:52:41.371Z,533.40
2023-03-29T21:55:10.314Z,494.02
2023-03-29T21:57:38.723Z,505.15
2023-03-29T22:00:11.316Z,520.15
2023-03-29T22:02:40.372Z,486.55
2023-03-29T22:05:10.915Z,524.75
2023-03-29T22:07:39.905Z,518.25
2023-03-29T22:10:11.486Z,563.45
2023-03-29T22:12:41.340Z,538.00
2023-03-29T22:15:11.489Z,513.05
2023-03-29T22:17:41.389Z,585.60
2023-03-29T22:20:13.816Z,508.85
2023-03-29T22:22:45.772Z,548.20
2023-03-29T22:25:14.474Z,551.42
2023-03-29T22:27:44.879Z,527.33
2023-03-29T22:30:14.549Z,535.63
2023-03-29T22:32:42.989Z,578.03
2023-03-29T22:35:13.272Z,547.33
2023-03-29T22:37:42.899Z,568.67
2023-03-29T22:40:13.212Z,527.10
2023-03-29T22:42:41.713Z,549.17
2023-03-29T22:45:11.466Z,579.83
2023-03-29T22:47:41.989Z,553.72
2023-03-29T22:50:12.412Z,526.88
2023-03-29T22:52:40.817Z,554.28
2023-03-29T22:55:09.931Z,528.30
2023-03-29T22:57:38.452Z,580.05
2023-03-29T23:00:09.272Z,574.40
2023-03-29T23:02:38.181Z,577.50
2023-03-29T23:05:07.465Z,535.03
2023-03-29T23:07:37.369Z,580.38
2023-03-29T23:10:07.069Z,563.90
2023-03-29T23:12:36.633Z,603.03
2023-03-29T23:15:06.346Z,630.13
2023-03-29T23:17:35.323Z,604.95
2023-03-29T23:20:06.238Z,615.35
2023-03-29T23:22:36.480Z,580.72
2023-03-29T23:25:05.267Z,517.20
2023-03-29T23:27:34.561Z,579.42
2023-03-29T23:30:03.025Z,557.47
2023-03-29T23:32:31.483Z,563.20
2023-03-29T23:35:01.229Z,570.00
2023-03-29T23:37:29.842Z,566.65
2023-03-29T23:39:59.539Z,512.13
2023-03-29T23:42:27.963Z,552.22
2023-03-29T23:44:56.388Z,574.33
2023-03-29T23:47:24.924Z,580.10
2023-03-29T23:49:53.378Z,548.03
2023-03-29T23:52:23.121Z,582.78
2023-03-29T23:54:51.971Z,627.28
2023-03-29T23:57:21.853Z,620.28
2023-03-29T23:59:52.654Z,617.28
